sensor_id;sensor_type;location;lat;lon;timestamp;pressure;altitude;pressure_sealevel;temperature;humidity
11672;BME280;5892;43.412;24.612;2023-02-11T00:00:55;102020.22;;;-6.29;99.88
11672;BME280;5892;43.412;24.612;2023-02-11T00:03:25;102030.72;;;-6.28;99.79
11672;BME280;5892;43.412;24.612;2023-02-11T00:05:59;102011.50;;;-6.39;99.94
11672;BME280;5892;43.412;24.612;2023-02-11T00:08:26;102031.88;;;-6.30;99.39
11672;BME280;5892;43.412;24.612;2023-02-11T00:10:55;102009.50;;;-6.37;99.80
11672;BME280;5892;43.412;24.612;2023-02-11T00:13:26;102025.72;;;-6.31;99.98
11672;BME280;5892;43.412;24.612;2023-02-11T00:15:53;102032.50;;;-6.36;100.00
11672;BME280;5892;43.412;24.612;2023-02-11T00:18:20;102011.63;;;-6.49;100.00
11672;BME280;5892;43.412;24.612;2023-02-11T00:20:49;102029.91;;;-6.28;100.00
11672;BME280;5892;43.412;24.612;2023-02-11T00:23:16;101994.06;;;-6.60;100.00
11672;BME280;5892;43.412;24.612;2023-02-11T00:25:44;102022.34;;;-6.33;100.00
11672;BME280;5892;43.412;24.612;2023-02-11T00:28:11;102027.19;;;-6.36;100.00
11672;BME280;5892;43.412;24.612;2023-02-11T00:30:38;102018.81;;;-6.42;100.00
11672;BME280;5892;43.412;24.612;2023-02-11T00:33:05;102020.84;;;-6.35;100.00
11672;BME280;5892;43.412;24.612;2023-02-11T00:35:35;101995.78;;;-6.43;100.00
11672;BME280;5892;43.412;24.612;2023-02-11T00:38:03;102003.16;;;-6.36;100.00
11672;BME280;5892;43.412;24.612;2023-02-11T00:40:30;102014.47;;;-6.43;100.00
11672;BME280;5892;43.412;24.612;2023-02-11T00:42:57;102015.47;;;-6.44;100.00
11672;BME280;5892;43.412;24.612;2023-02-11T00:45:24;101980.66;;;-6.68;100.00
11672;BME280;5892;43.412;24.612;2023-02-11T00:47:51;102005.13;;;-6.47;100.00
11672;BME280;5892;43.412;24.612;2023-02-11T00:50:18;102011.91;;;-6.52;100.00
11672;BME280;5892;43.412;24.612;2023-02-11T00:52:46;101985.38;;;-6.62;100.00
11672;BME280;5892;43.412;24.612;2023-02-11T00:55:15;102009.94;;;-6.50;100.00
11672;BME280;5892;43.412;24.612;2023-02-11T00:57:43;101999.91;;;-6.56;100.00
11672;BME280;5892;43.412;24.612;2023-02-11T01:00:11;101993.69;;;-6.65;100.00
11672;BME280;5892;43.412;24.612;2023-02-11T01:02:39;101969.75;;;-6.82;100.00
11672;BME280;5892;43.412;24.612;2023-02-11T01:05:07;101996.03;;;-6.62;100.00
11672;BME280;5892;43.412;24.612;2023-02-11T01:07:34;101970.00;;;-6.68;100.00
11672;BME280;5892;43.412;24.612;2023-02-11T01:10:03;101988.72;;;-6.60;100.00
11672;BME280;5892;43.412;24.612;2023-02-11T01:12:32;101957.41;;;-6.83;100.00
11672;BME280;5892;43.412;24.612;2023-02-11T01:14:59;101988.25;;;-6.55;100.00
11672;BME280;5892;43.412;24.612;2023-02-11T01:17:26;101988.06;;;-6.54;100.00
11672;BME280;5892;43.412;24.612;2023-02-11T01:19:53;101992.06;;;-6.58;100.00
11672;BME280;5892;43.412;24.612;2023-02-11T01:22:20;101974.00;;;-6.64;100.00
11672;BME280;5892;43.412;24.612;2023-02-11T01:24:47;101989.34;;;-6.66;100.00
11672;BME280;5892;43.412;24.612;2023-02-11T01:27:14;101988.00;;;-6.70;100.00
11672;BME280;5892;43.412;24.612;2023-02-11T01:29:43;101967.06;;;-6.82;100.00
11672;BME280;5892;43.412;24.612;2023-02-11T01:32:12;102006.00;;;-6.64;100.00
11672;BME280;5892;43.412;24.612;2023-02-11T01:34:38;101995.19;;;-6.62;100.00
11672;BME280;5892;43.412;24.612;2023-02-11T01:37:06;101929.50;;;-6.97;100.00
11672;BME280;5892;43.412;24.612;2023-02-11T01:39:34;101936.44;;;-7.04;100.00
11672;BME280;5892;43.412;24.612;2023-02-11T01:42:01;101958.22;;;-6.91;100.00
11672;BME280;5892;43.412;24.612;2023-02-11T01:44:30;101994.88;;;-6.59;100.00
11672;BME280;5892;43.412;24.612;2023-02-11T01:46:59;101973.00;;;-6.71;100.00
11672;BME280;5892;43.412;24.612;2023-02-11T01:49:32;102005.38;;;-6.58;100.00
11672;BME280;5892;43.412;24.612;2023-02-11T01:52:02;101893.56;;;-7.19;100.00
11672;BME280;5892;43.412;24.612;2023-02-11T01:54:35;101988.34;;;-6.65;100.00
11672;BME280;5892;43.412;24.612;2023-02-11T01:57:25;101976.63;;;-6.72;100.00
11672;BME280;5892;43.412;24.612;2023-02-11T02:00:00;101979.81;;;-6.68;100.00
11672;BME280;5892;43.412;24.612;2023-02-11T02:02:33;102012.25;;;-6.55;100.00
11672;BME280;5892;43.412;24.612;2023-02-11T02:05:08;102007.91;;;-6.56;100.00
11672;BME280;5892;43.412;24.612;2023-02-11T02:07:44;101999.22;;;-6.58;100.00
11672;BME280;5892;43.412;24.612;2023-02-11T02:10:18;102008.41;;;-6.53;100.00
11672;BME280;5892;43.412;24.612;2023-02-11T02:12:46;101989.94;;;-6.54;100.00
11672;BME280;5892;43.412;24.612;2023-02-11T02:15:22;101941.34;;;-6.66;100.00
11672;BME280;5892;43.412;24.612;2023-02-11T02:18:08;101981.19;;;-6.38;100.00
11672;BME280;5892;43.412;24.612;2023-02-11T02:26:59;101988.50;;;-6.40;100.00
11672;BME280;5892;43.412;24.612;2023-02-11T02:32:58;102004.72;;;-6.60;100.00
11672;BME280;5892;43.412;24.612;2023-02-11T02:35:34;101994.56;;;-6.56;99.76
11672;BME280;5892;43.412;24.612;2023-02-11T02:38:09;101982.69;;;-6.62;99.70
11672;BME280;5892;43.412;24.612;2023-02-11T02:40:43;101933.56;;;-7.11;100.00
11672;BME280;5892;43.412;24.612;2023-02-11T02:43:12;101933.53;;;-6.93;100.00
11672;BME280;5892;43.412;24.612;2023-02-11T02:45:40;101980.28;;;-6.47;100.00
11672;BME280;5892;43.412;24.612;2023-02-11T02:48:24;101980.13;;;-6.46;100.00
11672;BME280;5892;43.412;24.612;2023-02-11T02:51:01;101977.59;;;-6.47;100.00
11672;BME280;5892;43.412;24.612;2023-02-11T02:53:43;101955.88;;;-6.60;100.00
11672;BME280;5892;43.412;24.612;2023-02-11T02:56:13;101971.66;;;-6.41;100.00
11672;BME280;5892;43.412;24.612;2023-02-11T02:59:12;101983.00;;;-6.39;100.00
11672;BME280;5892;43.412;24.612;2023-02-11T03:01:52;101983.78;;;-6.47;100.00
11672;BME280;5892;43.412;24.612;2023-02-11T03:04:29;101977.59;;;-6.47;100.00
11672;BME280;5892;43.412;24.612;2023-02-11T03:07:02;101963.06;;;-6.53;100.00
11672;BME280;5892;43.412;24.612;2023-02-11T03:09:35;101984.06;;;-6.58;100.00
11672;BME280;5892;43.412;24.612;2023-02-11T03:12:05;101945.97;;;-6.76;100.00
11672;BME280;5892;43.412;24.612;2023-02-11T03:14:35;101986.09;;;-6.52;100.00
11672;BME280;5892;43.412;24.612;2023-02-11T03:17:04;101982.19;;;-6.65;100.00
11672;BME280;5892;43.412;24.612;2023-02-11T03:19:36;101968.13;;;-6.75;100.00
11672;BME280;5892;43.412;24.612;2023-02-11T03:22:09;101965.84;;;-6.70;100.00
11672;BME280;5892;43.412;24.612;2023-02-11T03:24:38;101972.50;;;-6.66;100.00
11672;BME280;5892;43.412;24.612;2023-02-11T03:27:09;101971.06;;;-6.61;100.00
11672;BME280;5892;43.412;24.612;2023-02-11T03:29:40;101961.41;;;-6.54;100.00
11672;BME280;5892;43.412;24.612;2023-02-11T03:32:13;101959.91;;;-6.56;100.00
11672;BME280;5892;43.412;24.612;2023-02-11T03:34:46;101942.69;;;-6.62;100.00
11672;BME280;5892;43.412;24.612;2023-02-11T03:37:18;101949.03;;;-6.63;100.00
11672;BME280;5892;43.412;24.612;2023-02-11T03:39:51;101952.75;;;-6.56;100.00
11672;BME280;5892;43.412;24.612;2023-02-11T03:42:26;101941.50;;;-6.67;100.00
11672;BME280;5892;43.412;24.612;2023-02-11T03:44:58;101957.25;;;-6.56;100.00
11672;BME280;5892;43.412;24.612;2023-02-11T03:47:31;101958.06;;;-6.56;100.00
11672;BME280;5892;43.412;24.612;2023-02-11T03:50:04;101961.72;;;-6.57;100.00
11672;BME280;5892;43.412;24.612;2023-02-11T03:52:33;101967.53;;;-6.61;100.00
11672;BME280;5892;43.412;24.612;2023-02-11T03:55:02;101938.63;;;-6.74;100.00
11672;BME280;5892;43.412;24.612;2023-02-11T03:57:31;101959.41;;;-6.60;100.00
11672;BME280;5892;43.412;24.612;2023-02-11T03:59:59;101954.50;;;-6.64;100.00
11672;BME280;5892;43.412;24.612;2023-02-11T04:02:29;101930.97;;;-6.77;100.00
11672;BME280;5892;43.412;24.612;2023-02-11T04:04:57;101960.94;;;-6.75;100.00
11672;BME280;5892;43.412;24.612;2023-02-11T04:07:27;101965.63;;;-6.77;100.00
11672;BME280;5892;43.412;24.612;2023-02-11T04:09:54;101967.94;;;-6.74;100.00
11672;BME280;5892;43.412;24.612;2023-02-11T04:12:22;101942.63;;;-6.78;100.00
11672;BME280;5892;43.412;24.612;2023-02-11T04:14:50;101947.88;;;-6.60;100.00
11672;BME280;5892;43.412;24.612;2023-02-11T04:17:17;101941.53;;;-6.59;100.00
11672;BME280;5892;43.412;24.612;2023-02-11T04:19:44;101864.63;;;-7.14;100.00
11672;BME280;5892;43.412;24.612;2023-02-11T04:22:11;101941.47;;;-6.75;100.00
11672;BME280;5892;43.412;24.612;2023-02-11T04:24:39;101948.75;;;-6.86;100.00
11672;BME280;5892;43.412;24.612;2023-02-11T04:27:08;101934.00;;;-6.64;100.00
11672;BME280;5892;43.412;24.612;2023-02-11T04:29:35;101882.09;;;-7.11;100.00
11672;BME280;5892;43.412;24.612;2023-02-11T04:32:03;101939.06;;;-6.61;100.00
11672;BME280;5892;43.412;24.612;2023-02-11T04:34:29;101904.94;;;-6.83;100.00
11672;BME280;5892;43.412;24.612;2023-02-11T04:36:57;101933.00;;;-6.71;100.00
11672;BME280;5892;43.412;24.612;2023-02-11T04:39:26;101947.94;;;-6.78;100.00
11672;BME280;5892;43.412;24.612;2023-02-11T04:41:55;101939.59;;;-6.83;100.00
11672;BME280;5892;43.412;24.612;2023-02-11T04:44:21;101939.22;;;-6.88;100.00
11672;BME280;5892;43.412;24.612;2023-02-11T04:46:48;101914.28;;;-6.79;100.00
11672;BME280;5892;43.412;24.612;2023-02-11T04:49:16;101904.94;;;-6.83;100.00
11672;BME280;5892;43.412;24.612;2023-02-11T04:51:43;101903.13;;;-6.74;100.00
11672;BME280;5892;43.412;24.612;2023-02-11T04:54:10;101906.63;;;-6.74;100.00
11672;BME280;5892;43.412;24.612;2023-02-11T04:56:37;101911.25;;;-6.84;100.00
11672;BME280;5892;43.412;24.612;2023-02-11T04:59:06;101901.59;;;-6.85;100.00
11672;BME280;5892;43.412;24.612;2023-02-11T05:01:33;101904.94;;;-6.83;100.00
11672;BME280;5892;43.412;24.612;2023-02-11T05:04:00;101898.09;;;-6.86;100.00
11672;BME280;5892;43.412;24.612;2023-02-11T05:06:27;101871.88;;;-6.98;100.00
11672;BME280;5892;43.412;24.612;2023-02-11T05:08:54;101823.72;;;-7.31;100.00
11672;BME280;5892;43.412;24.612;2023-02-11T05:11:23;101900.31;;;-6.73;100.00
11672;BME280;5892;43.412;24.612;2023-02-11T05:13:50;101906.47;;;-6.80;100.00
11672;BME280;5892;43.412;24.612;2023-02-11T05:16:19;101791.31;;;-7.52;100.00
11672;BME280;5892;43.412;24.612;2023-02-11T05:18:46;101904.25;;;-6.85;100.00
11672;BME280;5892;43.412;24.612;2023-02-11T05:21:15;101880.56;;;-6.96;100.00
11672;BME280;5892;43.412;24.612;2023-02-11T05:23:43;101904.94;;;-6.83;100.00
11672;BME280;5892;43.412;24.612;2023-02-11T05:26:14;101901.63;;;-6.77;100.00
11672;BME280;5892;43.412;24.612;2023-02-11T05:28:43;101724.88;;;-7.87;100.00
11672;BME280;5892;43.412;24.612;2023-02-11T05:31:10;101901.94;;;-6.80;100.00
11672;BME280;5892;43.412;24.612;2023-02-11T05:33:40;101895.47;;;-6.77;100.00
11672;BME280;5892;43.412;24.612;2023-02-11T05:36:09;101903.81;;;-6.72;100.00
11672;BME280;5892;43.412;24.612;2023-02-11T05:38:37;101923.25;;;-6.80;100.00
11672;BME280;5892;43.412;24.612;2023-02-11T05:41:05;101903.56;;;-6.61;100.00
11672;BME280;5892;43.412;24.612;2023-02-11T05:43:32;101892.47;;;-6.40;99.96
11672;BME280;5892;43.412;24.612;2023-02-11T05:45:59;101902.22;;;-6.23;98.84
11672;BME280;5892;43.412;24.612;2023-02-11T05:48:26;101831.75;;;-6.55;98.22
11672;BME280;5892;43.412;24.612;2023-02-11T05:50:54;101834.00;;;-6.26;97.60
11672;BME280;5892;43.412;24.612;2023-02-11T05:53:21;101898.44;;;-5.72;96.94
11672;BME280;5892;43.412;24.612;2023-02-11T05:55:53;101884.75;;;-5.61;95.61
11672;BME280;5892;43.412;24.612;2023-02-11T05:58:20;101916.47;;;-5.42;94.69
11672;BME280;5892;43.412;24.612;2023-02-11T06:00:47;101907.63;;;-5.26;93.62
11672;BME280;5892;43.412;24.612;2023-02-11T06:03:14;101911.59;;;-5.06;93.25
11672;BME280;5892;43.412;24.612;2023-02-11T06:05:41;101919.59;;;-4.82;93.18
11672;BME280;5892;43.412;24.612;2023-02-11T06:08:12;101923.50;;;-4.53;92.15
11672;BME280;5892;43.412;24.612;2023-02-11T06:10:43;101875.97;;;-4.90;89.99
11672;BME280;5892;43.412;24.612;2023-02-11T06:13:10;101928.63;;;-4.36;88.59
11672;BME280;5892;43.412;24.612;2023-02-11T06:15:38;101928.53;;;-4.50;86.92
11672;BME280;5892;43.412;24.612;2023-02-11T06:18:06;101935.63;;;-4.82;84.89
11672;BME280;5892;43.412;24.612;2023-02-11T06:20:34;101923.31;;;-5.15;86.03
11672;BME280;5892;43.412;24.612;2023-02-11T06:23:01;101936.31;;;-5.12;85.83
11672;BME280;5892;43.412;24.612;2023-02-11T06:25:30;101953.72;;;-5.16;85.50
11672;BME280;5892;43.412;24.612;2023-02-11T06:27:57;101962.22;;;-5.13;85.86
11672;BME280;5892;43.412;24.612;2023-02-11T06:30:25;101939.31;;;-5.07;84.99
11672;BME280;5892;43.412;24.612;2023-02-11T06:32:52;101956.84;;;-4.96;84.87
11672;BME280;5892;43.412;24.612;2023-02-11T06:35:20;101916.66;;;-5.35;84.38
11672;BME280;5892;43.412;24.612;2023-02-11T06:37:49;101937.25;;;-4.64;83.58
11672;BME280;5892;43.412;24.612;2023-02-11T06:40:18;101955.13;;;-4.57;83.25
11672;BME280;5892;43.412;24.612;2023-02-11T06:42:48;101855.41;;;-4.90;82.48
11672;BME280;5892;43.412;24.612;2023-02-11T06:45:15;101894.28;;;-4.63;82.00
11672;BME280;5892;43.412;24.612;2023-02-11T06:47:43;101946.78;;;-4.15;81.78
11672;BME280;5892;43.412;24.612;2023-02-11T06:50:12;101955.22;;;-3.95;81.45
11672;BME280;5892;43.412;24.612;2023-02-11T06:52:39;101980.06;;;-3.78;80.60
11672;BME280;5892;43.412;24.612;2023-02-11T06:55:07;101934.00;;;-4.05;80.27
11672;BME280;5892;43.412;24.612;2023-02-11T06:57:34;101963.53;;;-3.59;79.81
11672;BME280;5892;43.412;24.612;2023-02-11T07:00:03;101926.25;;;-3.69;79.13
11672;BME280;5892;43.412;24.612;2023-02-11T07:02:32;101947.63;;;-3.61;78.68
11672;BME280;5892;43.412;24.612;2023-02-11T07:04:59;101900.28;;;-3.91;77.92
11672;BME280;5892;43.412;24.612;2023-02-11T07:07:26;101953.91;;;-3.46;77.08
11672;BME280;5892;43.412;24.612;2023-02-11T07:09:53;101854.19;;;-3.78;77.12
11672;BME280;5892;43.412;24.612;2023-02-11T07:12:20;101962.38;;;-2.96;76.74
11672;BME280;5892;43.412;24.612;2023-02-11T07:14:48;101966.03;;;-3.12;75.81
11672;BME280;5892;43.412;24.612;2023-02-11T07:17:17;101956.28;;;-2.90;76.44
11672;BME280;5892;43.412;24.612;2023-02-11T07:19:44;101954.91;;;-2.86;76.48
11672;BME280;5892;43.412;24.612;2023-02-11T07:22:11;101923.19;;;-2.68;76.33
11672;BME280;5892;43.412;24.612;2023-02-11T07:24:38;101909.50;;;-2.73;73.42
11672;BME280;5892;43.412;24.612;2023-02-11T07:27:05;101931.34;;;-2.47;73.95
11672;BME280;5892;43.412;24.612;2023-02-11T07:29:32;101935.31;;;-2.58;73.70
11672;BME280;5892;43.412;24.612;2023-02-11T07:31:59;101945.31;;;-2.22;73.75
11672;BME280;5892;43.412;24.612;2023-02-11T07:34:30;101941.13;;;-2.25;73.66
11672;BME280;5892;43.412;24.612;2023-02-11T07:36:59;101944.97;;;-1.98;73.77
11672;BME280;5892;43.412;24.612;2023-02-11T07:39:26;101868.09;;;-2.20;72.95
11672;BME280;5892;43.412;24.612;2023-02-11T07:41:54;101902.56;;;-2.02;72.42
11672;BME280;5892;43.412;24.612;2023-02-11T07:44:21;101946.69;;;-1.76;71.77
11672;BME280;5892;43.412;24.612;2023-02-11T07:46:48;101841.22;;;-2.20;72.20
11672;BME280;5892;43.412;24.612;2023-02-11T07:49:16;101945.19;;;-1.42;71.17
11672;BME280;5892;43.412;24.612;2023-02-11T07:51:45;101951.84;;;-1.17;70.96
11672;BME280;5892;43.412;24.612;2023-02-11T07:54:13;101937.81;;;-1.12;70.46
11672;BME280;5892;43.412;24.612;2023-02-11T07:56:42;101880.22;;;-1.46;70.54
11672;BME280;5892;43.412;24.612;2023-02-11T07:59:10;101946.00;;;-0.71;69.85
11672;BME280;5892;43.412;24.612;2023-02-11T08:01:37;101943.97;;;-0.63;69.24
11672;BME280;5892;43.412;24.612;2023-02-11T08:04:04;101951.03;;;-0.62;69.50
11672;BME280;5892;43.412;24.612;2023-02-11T08:06:33;101930.63;;;-0.77;69.31
11672;BME280;5892;43.412;24.612;2023-02-11T08:09:05;101921.28;;;-0.54;68.97
11672;BME280;5892;43.412;24.612;2023-02-11T08:11:33;101946.25;;;-0.32;68.72
11672;BME280;5892;43.412;24.612;2023-02-11T08:14:01;101927.41;;;-0.25;68.21
11672;BME280;5892;43.412;24.612;2023-02-11T08:16:29;101896.75;;;-0.24;68.44
11672;BME280;5892;43.412;24.612;2023-02-11T08:18:58;101944.38;;;0.16;67.79
11672;BME280;5892;43.412;24.612;2023-02-11T08:21:26;101934.50;;;0.36;67.59
11672;BME280;5892;43.412;24.612;2023-02-11T08:23:57;101935.78;;;0.54;65.97
11672;BME280;5892;43.412;24.612;2023-02-11T08:26:27;101940.78;;;0.70;63.67
11672;BME280;5892;43.412;24.612;2023-02-11T08:28:55;101937.47;;;0.81;63.80
11672;BME280;5892;43.412;24.612;2023-02-11T08:31:24;101927.94;;;0.98;61.60
11672;BME280;5892;43.412;24.612;2023-02-11T08:33:52;101928.13;;;1.23;60.81
11672;BME280;5892;43.412;24.612;2023-02-11T08:36:24;101882.25;;;1.03;60.31
11672;BME280;5892;43.412;24.612;2023-02-11T08:38:53;101930.53;;;1.57;59.88
11672;BME280;5892;43.412;24.612;2023-02-11T08:41:21;101926.56;;;1.73;58.06
11672;BME280;5892;43.412;24.612;2023-02-11T08:43:49;101924.84;;;1.85;58.00
11672;BME280;5892;43.412;24.612;2023-02-11T08:46:18;101906.09;;;1.97;57.61
11672;BME280;5892;43.412;24.612;2023-02-11T08:48:46;101901.88;;;2.07;57.18
11672;BME280;5892;43.412;24.612;2023-02-11T08:51:15;101919.22;;;2.31;55.33
11672;BME280;5892;43.412;24.612;2023-02-11T08:53:42;101910.94;;;2.26;54.56
11672;BME280;5892;43.412;24.612;2023-02-11T08:56:13;101923.03;;;2.24;54.91
11672;BME280;5892;43.412;24.612;2023-02-11T08:58:40;101921.50;;;2.34;55.54
11672;BME280;5892;43.412;24.612;2023-02-11T09:01:11;101921.19;;;2.18;56.86
11672;BME280;5892;43.412;24.612;2023-02-11T09:03:37;101909.25;;;2.32;58.00
11672;BME280;5892;43.412;24.612;2023-02-11T09:06:06;101904.00;;;2.37;52.85
11672;BME280;5892;43.412;24.612;2023-02-11T09:08:34;101908.75;;;2.41;49.56
11672;BME280;5892;43.412;24.612;2023-02-11T09:11:01;101905.63;;;2.44;48.65
11672;BME280;5892;43.412;24.612;2023-02-11T09:13:28;101912.66;;;2.52;49.60
11672;BME280;5892;43.412;24.612;2023-02-11T09:15:57;101912.22;;;2.55;48.49
11672;BME280;5892;43.412;24.612;2023-02-11T09:18:25;101924.13;;;2.47;47.84
11672;BME280;5892;43.412;24.612;2023-02-11T09:20:53;101935.22;;;2.71;48.68
11672;BME280;5892;43.412;24.612;2023-02-11T09:23:27;101870.25;;;2.46;48.46
11672;BME280;5892;43.412;24.612;2023-02-11T09:25:53;101897.03;;;2.54;47.40
11672;BME280;5892;43.412;24.612;2023-02-11T09:28:22;101911.56;;;2.60;47.89
11672;BME280;5892;43.412;24.612;2023-02-11T09:30:49;101901.03;;;2.76;48.60
11672;BME280;5892;43.412;24.612;2023-02-11T09:33:16;101849.34;;;2.28;49.57
11672;BME280;5892;43.412;24.612;2023-02-11T09:35:45;101874.56;;;2.53;50.10
11672;BME280;5892;43.412;24.612;2023-02-11T09:38:12;101901.56;;;2.60;48.72
11672;BME280;5892;43.412;24.612;2023-02-11T09:40:41;101873.13;;;2.51;49.54
11672;BME280;5892;43.412;24.612;2023-02-11T09:43:10;101894.47;;;2.66;50.02
11672;BME280;5892;43.412;24.612;2023-02-11T09:45:45;101859.94;;;2.61;50.06
11672;BME280;5892;43.412;24.612;2023-02-11T09:48:14;101880.03;;;2.96;50.57
11672;BME280;5892;43.412;24.612;2023-02-11T09:50:47;101880.59;;;2.80;50.54
11672;BME280;5892;43.412;24.612;2023-02-11T09:53:19;101876.38;;;2.84;50.80
11672;BME280;5892;43.412;24.612;2023-02-11T09:55:51;101869.94;;;2.85;51.16
11672;BME280;5892;43.412;24.612;2023-02-11T09:58:24;101865.22;;;2.74;51.52
11672;BME280;5892;43.412;24.612;2023-02-11T10:01:00;101786.63;;;2.38;51.82
11672;BME280;5892;43.412;24.612;2023-02-11T10:03:45;101849.22;;;2.97;51.44
11672;BME280;5892;43.412;24.612;2023-02-11T10:06:37;101771.84;;;2.40;52.38
11672;BME280;5892;43.412;24.612;2023-02-11T10:09:28;101841.41;;;2.83;53.33
11672;BME280;5892;43.412;24.612;2023-02-11T10:12:06;101829.81;;;2.76;53.59
11672;BME280;5892;43.412;24.612;2023-02-11T10:15:01;101818.47;;;2.85;53.86
11672;BME280;5892;43.412;24.612;2023-02-11T10:17:37;101805.19;;;3.02;53.56
11672;BME280;5892;43.412;24.612;2023-02-11T10:20:24;101808.19;;;2.94;53.38
11672;BME280;5892;43.412;24.612;2023-02-11T10:23:09;101800.91;;;2.94;53.08
11672;BME280;5892;43.412;24.612;2023-02-11T10:25:42;101773.22;;;2.92;52.92
11672;BME280;5892;43.412;24.612;2023-02-11T10:28:13;101759.97;;;2.84;52.08
11672;BME280;5892;43.412;24.612;2023-02-11T10:30:48;101697.97;;;2.40;52.37
11672;BME280;5892;43.412;24.612;2023-02-11T10:33:23;101757.56;;;2.76;52.45
11672;BME280;5892;43.412;24.612;2023-02-11T10:35:51;101774.22;;;2.98;52.67
11672;BME280;5892;43.412;24.612;2023-02-11T10:38:20;101779.53;;;3.05;52.47
11672;BME280;5892;43.412;24.612;2023-02-11T10:40:47;101777.38;;;3.13;52.23
11672;BME280;5892;43.412;24.612;2023-02-11T10:43:16;101767.06;;;3.22;52.48
11672;BME280;5892;43.412;24.612;2023-02-11T10:45:48;101735.91;;;2.94;52.50
11672;BME280;5892;43.412;24.612;2023-02-11T10:48:39;101764.59;;;3.02;52.75
11672;BME280;5892;43.412;24.612;2023-02-11T10:51:15;101758.13;;;3.03;52.75
11672;BME280;5892;43.412;24.612;2023-02-11T10:53:43;101750.78;;;3.04;52.01
11672;BME280;5892;43.412;24.612;2023-02-11T10:56:20;101749.91;;;3.10;52.23
11672;BME280;5892;43.412;24.612;2023-02-11T10:58:55;101724.25;;;2.94;53.13
11672;BME280;5892;43.412;24.612;2023-02-11T11:01:35;101726.59;;;3.09;53.70
11672;BME280;5892;43.412;24.612;2023-02-11T11:04:03;101742.75;;;3.15;53.40
11672;BME280;5892;43.412;24.612;2023-02-11T11:06:32;101726.59;;;3.09;53.27
11672;BME280;5892;43.412;24.612;2023-02-11T11:09:01;101689.94;;;2.88;54.49
11672;BME280;5892;43.412;24.612;2023-02-11T11:11:29;101734.69;;;3.45;54.15
11672;BME280;5892;43.412;24.612;2023-02-11T11:13:58;101679.81;;;3.02;53.17
11672;BME280;5892;43.412;24.612;2023-02-11T11:16:27;101645.69;;;2.82;54.10
11672;BME280;5892;43.412;24.612;2023-02-11T11:19:21;101715.72;;;3.45;53.59
11672;BME280;5892;43.412;24.612;2023-02-11T11:21:50;101709.19;;;3.34;53.96
11672;BME280;5892;43.412;24.612;2023-02-11T11:24:22;101699.69;;;3.25;53.66
11672;BME280;5892;43.412;24.612;2023-02-11T11:26:52;101698.44;;;3.28;54.05
11672;BME280;5892;43.412;24.612;2023-02-11T11:29:23;101635.00;;;2.87;53.71
11672;BME280;5892;43.412;24.612;2023-02-11T11:31:55;101686.47;;;3.17;53.48
11672;BME280;5892;43.412;24.612;2023-02-11T11:34:27;101681.00;;;3.35;54.76
11672;BME280;5892;43.412;24.612;2023-02-11T11:36:57;101688.13;;;3.48;55.43
11672;BME280;5892;43.412;24.612;2023-02-11T11:39:30;101679.41;;;3.46;52.78
11672;BME280;5892;43.412;24.612;2023-02-11T11:42:24;101680.63;;;3.50;53.54
11672;BME280;5892;43.412;24.612;2023-02-11T11:44:58;101664.31;;;3.38;52.77
11672;BME280;5892;43.412;24.612;2023-02-11T11:47:35;101597.53;;;2.84;53.25
11672;BME280;5892;43.412;24.612;2023-02-11T11:50:22;101660.00;;;3.49;53.93
11672;BME280;5892;43.412;24.612;2023-02-11T11:52:59;101670.34;;;3.52;54.91
11672;BME280;5892;43.412;24.612;2023-02-11T11:55:33;101663.53;;;3.61;53.93
11672;BME280;5892;43.412;24.612;2023-02-11T11:58:00;101661.78;;;3.67;53.50
11672;BME280;5892;43.412;24.612;2023-02-11T12:00:34;101651.19;;;3.65;53.73
11672;BME280;5892;43.412;24.612;2023-02-11T12:06:02;101652.38;;;3.69;54.13
11672;BME280;5892;43.412;24.612;2023-02-11T12:08:40;101635.19;;;3.75;54.54
11672;BME280;5892;43.412;24.612;2023-02-11T12:11:15;101636.59;;;3.66;54.58
11672;BME280;5892;43.412;24.612;2023-02-11T12:13:56;101611.47;;;3.59;54.99
11672;BME280;5892;43.412;24.612;2023-02-11T12:16:41;101622.81;;;3.79;54.88
11672;BME280;5892;43.412;24.612;2023-02-11T12:19:37;101627.97;;;3.69;54.49
11672;BME280;5892;43.412;24.612;2023-02-11T12:22:10;101597.78;;;3.54;54.87
11672;BME280;5892;43.412;24.612;2023-02-11T12:24:52;101565.00;;;3.44;54.82
11672;BME280;5892;43.412;24.612;2023-02-11T12:27:37;101602.78;;;3.80;54.58
11672;BME280;5892;43.412;24.612;2023-02-11T12:30:21;101602.66;;;3.75;54.32
11672;BME280;5892;43.412;24.612;2023-02-11T12:33:03;101596.06;;;3.71;54.83
11672;BME280;5892;43.412;24.612;2023-02-11T12:35:40;101597.13;;;3.82;54.10
11672;BME280;5892;43.412;24.612;2023-02-11T12:38:33;101588.84;;;3.89;53.88
11672;BME280;5892;43.412;24.612;2023-02-11T12:41:18;101589.25;;;3.92;53.70
11672;BME280;5892;43.412;24.612;2023-02-11T12:44:16;101587.69;;;3.96;53.57
11672;BME280;5892;43.412;24.612;2023-02-11T12:46:49;101572.59;;;3.89;53.89
11672;BME280;5892;43.412;24.612;2023-02-11T12:49:30;101570.69;;;3.89;53.60
11672;BME280;5892;43.412;24.612;2023-02-11T12:52:15;101582.25;;;3.84;53.07
11672;BME280;5892;43.412;24.612;2023-02-11T12:54:46;101576.34;;;3.88;53.75
11672;BME280;5892;43.412;24.612;2023-02-11T12:57:20;101528.63;;;3.63;53.71
11672;BME280;5892;43.412;24.612;2023-02-11T13:00:01;101574.00;;;3.79;55.04
11672;BME280;5892;43.412;24.612;2023-02-11T13:02:35;101563.16;;;3.79;55.27
11672;BME280;5892;43.412;24.612;2023-02-11T13:05:17;101564.22;;;3.78;56.50
11672;BME280;5892;43.412;24.612;2023-02-11T13:07:45;101553.59;;;3.89;56.54
11672;BME280;5892;43.412;24.612;2023-02-11T13:10:23;101563.41;;;3.90;57.12
11672;BME280;5892;43.412;24.612;2023-02-11T13:12:53;101556.19;;;3.83;56.65
11672;BME280;5892;43.412;24.612;2023-02-11T13:15:40;101555.97;;;3.73;56.54
11672;BME280;5892;43.412;24.612;2023-02-11T13:18:16;101552.56;;;3.66;55.62
11672;BME280;5892;43.412;24.612;2023-02-11T13:20:50;101545.81;;;3.57;55.99
11672;BME280;5892;43.412;24.612;2023-02-11T13:23:24;101546.28;;;3.54;55.70